sensor_id;sensor_type;location;lat;lon;timestamp;P1;durP1;ratioP1;P2;durP2;ratioP2
9801;SDS011;4940;50.900;4.672;2023-09-07T00:01:37;39.28;;;36.78;;
9801;SDS011;4940;50.900;4.672;2023-09-07T00:04:04;41.15;;;38.42;;
9801;SDS011;4940;50.900;4.672;2023-09-07T00:06:32;38.85;;;36.15;;
9801;SDS011;4940;50.900;4.672;2023-09-07T00:09:01;42.55;;;39.75;;
9801;SDS011;4940;50.900;4.672;2023-09-07T00:11:31;38.92;;;36.30;;
9801;SDS011;4940;50.900;4.672;2023-09-07T00:13:58;36.47;;;33.88;;
9801;SDS011;4940;50.900;4.672;2023-09-07T00:16:26;37.53;;;34.95;;
9801;SDS011;4940;50.900;4.672;2023-09-07T00:18:53;45.35;;;42.45;;
9801;SDS011;4940;50.900;4.672;2023-09-07T00:21:21;39.42;;;36.65;;
9801;SDS011;4940;50.900;4.672;2023-09-07T00:23:48;45.10;;;42.20;;
9801;SDS011;4940;50.900;4.672;2023-09-07T00:26:16;43.55;;;40.63;;
9801;SDS011;4940;50.900;4.672;2023-09-07T00:28:44;37.83;;;35.03;;
9801;SDS011;4940;50.900;4.672;2023-09-07T00:31:11;37.17;;;34.70;;
9801;SDS011;4940;50.900;4.672;2023-09-07T00:33:39;48.38;;;44.97;;
9801;SDS011;4940;50.900;4.672;2023-09-07T00:36:06;44.67;;;41.47;;
9801;SDS011;4940;50.900;4.672;2023-09-07T00:38:34;39.45;;;36.65;;
9801;SDS011;4940;50.900;4.672;2023-09-07T00:41:01;45.72;;;42.72;;
9801;SDS011;4940;50.900;4.672;2023-09-07T00:43:29;37.60;;;35.00;;
9801;SDS011;4940;50.900;4.672;2023-09-07T00:45:57;38.15;;;35.35;;
9801;SDS011;4940;50.900;4.672;2023-09-07T00:48:24;39.95;;;37.25;;
9801;SDS011;4940;50.900;4.672;2023-09-07T00:50:52;41.58;;;38.72;;
9801;SDS011;4940;50.900;4.672;2023-09-07T00:53:20;40.25;;;37.38;;
9801;SDS011;4940;50.900;4.672;2023-09-07T00:55:47;40.33;;;37.10;;
9801;SDS011;4940;50.900;4.672;2023-09-07T00:58:15;43.88;;;40.85;;
9801;SDS011;4940;50.900;4.672;2023-09-07T01:00:43;36.10;;;33.42;;
9801;SDS011;4940;50.900;4.672;2023-09-07T01:03:11;36.75;;;33.85;;
9801;SDS011;4940;50.900;4.672;2023-09-07T01:05:41;40.90;;;37.55;;
9801;SDS011;4940;50.900;4.672;2023-09-07T01:08:15;38.33;;;35.42;;
9801;SDS011;4940;50.900;4.672;2023-09-07T01:10:48;36.28;;;33.58;;
9801;SDS011;4940;50.900;4.672;2023-09-07T01:13:16;43.92;;;40.72;;
9801;SDS011;4940;50.900;4.672;2023-09-07T01:15:44;37.88;;;35.05;;
9801;SDS011;4940;50.900;4.672;2023-09-07T01:18:12;39.42;;;36.50;;
9801;SDS011;4940;50.900;4.672;2023-09-07T01:20:42;38.72;;;35.72;;
9801;SDS011;4940;50.900;4.672;2023-09-07T01:23:12;38.83;;;35.92;;
9801;SDS011;4940;50.900;4.672;2023-09-07T01:25:40;46.42;;;43.13;;
9801;SDS011;4940;50.900;4.672;2023-09-07T01:28:09;38.67;;;35.58;;
9801;SDS011;4940;50.900;4.672;2023-09-07T01:30:36;42.70;;;39.47;;
9801;SDS011;4940;50.900;4.672;2023-09-07T01:33:04;42.25;;;39.10;;
9801;SDS011;4940;50.900;4.672;2023-09-07T01:35:33;42.67;;;39.47;;
9801;SDS011;4940;50.900;4.672;2023-09-07T01:38:03;36.17;;;33.47;;
9801;SDS011;4940;50.900;4.672;2023-09-07T01:40:31;39.92;;;36.72;;
9801;SDS011;4940;50.900;4.672;2023-09-07T01:42:59;39.22;;;36.13;;
9801;SDS011;4940;50.900;4.672;2023-09-07T01:45:26;52.42;;;48.45;;
9801;SDS011;4940;50.900;4.672;2023-09-07T01:47:53;37.15;;;34.28;;
9801;SDS011;4940;50.900;4.672;2023-09-07T01:50:21;37.20;;;34.00;;
9801;SDS011;4940;50.900;4.672;2023-09-07T01:52:51;43.72;;;40.42;;
9801;SDS011;4940;50.900;4.672;2023-09-07T01:55:20;48.45;;;44.85;;
9801;SDS011;4940;50.900;4.672;2023-09-07T01:57:48;41.83;;;38.08;;
9801;SDS011;4940;50.900;4.672;2023-09-07T02:00:15;40.28;;;37.17;;
9801;SDS011;4940;50.900;4.672;2023-09-07T02:02:43;42.83;;;39.42;;
9801;SDS011;4940;50.900;4.672;2023-09-07T02:05:10;40.13;;;36.75;;
9801;SDS011;4940;50.900;4.672;2023-09-07T02:07:37;36.92;;;34.10;;
9801;SDS011;4940;50.900;4.672;2023-09-07T02:10:05;42.45;;;39.22;;
9801;SDS011;4940;50.900;4.672;2023-09-07T02:12:33;44.13;;;40.80;;
9801;SDS011;4940;50.900;4.672;2023-09-07T02:15:02;40.38;;;37.28;;
9801;SDS011;4940;50.900;4.672;2023-09-07T02:17:30;41.22;;;38.22;;
9801;SDS011;4940;50.900;4.672;2023-09-07T02:19:58;45.42;;;41.92;;
9801;SDS011;4940;50.900;4.672;2023-09-07T02:22:25;42.28;;;39.00;;
9801;SDS011;4940;50.900;4.672;2023-09-07T02:24:52;38.63;;;35.20;;
9801;SDS011;4940;50.900;4.672;2023-09-07T02:27:20;35.95;;;33.08;;
9801;SDS011;4940;50.900;4.672;2023-09-07T02:29:47;37.17;;;34.17;;
9801;SDS011;4940;50.900;4.672;2023-09-07T02:32:16;38.85;;;35.85;;
9801;SDS011;4940;50.900;4.672;2023-09-07T02:34:44;40.40;;;37.20;;
9801;SDS011;4940;50.900;4.672;2023-09-07T02:37:11;39.35;;;36.28;;
9801;SDS011;4940;50.900;4.672;2023-09-07T02:39:40;38.80;;;35.70;;
9801;SDS011;4940;50.900;4.672;2023-09-07T02:42:07;34.22;;;31.48;;
9801;SDS011;4940;50.900;4.672;2023-09-07T02:44:34;39.70;;;36.60;;
9801;SDS011;4940;50.900;4.672;2023-09-07T02:47:03;38.45;;;35.25;;
9801;SDS011;4940;50.900;4.672;2023-09-07T02:49:32;42.67;;;39.50;;
9801;SDS011;4940;50.900;4.672;2023-09-07T02:52:00;40.78;;;37.53;;
9801;SDS011;4940;50.900;4.672;2023-09-07T02:54:27;36.90;;;34.00;;
9801;SDS011;4940;50.900;4.672;2023-09-07T02:56:55;39.28;;;35.85;;
9801;SDS011;4940;50.900;4.672;2023-09-07T02:59:22;38.13;;;34.88;;
9801;SDS011;4940;50.900;4.672;2023-09-07T03:01:49;39.55;;;36.35;;
9801;SDS011;4940;50.900;4.672;2023-09-07T03:04:17;44.63;;;41.13;;
9801;SDS011;4940;50.900;4.672;2023-09-07T03:06:45;37.42;;;34.17;;
9801;SDS011;4940;50.900;4.672;2023-09-07T03:09:12;42.22;;;38.65;;
9801;SDS011;4940;50.900;4.672;2023-09-07T03:11:40;38.20;;;35.00;;
9801;SDS011;4940;50.900;4.672;2023-09-07T03:14:07;39.95;;;36.65;;
9801;SDS011;4940;50.900;4.672;2023-09-07T03:16:35;39.72;;;36.25;;
9801;SDS011;4940;50.900;4.672;2023-09-07T03:19:04;41.35;;;38.05;;
9801;SDS011;4940;50.900;4.672;2023-09-07T03:21:32;37.20;;;34.10;;
9801;SDS011;4940;50.900;4.672;2023-09-07T03:24:00;38.78;;;35.47;;
9801;SDS011;4940;50.900;4.672;2023-09-07T03:26:28;39.75;;;36.40;;
9801;SDS011;4940;50.900;4.672;2023-09-07T03:28:55;39.83;;;36.72;;
9801;SDS011;4940;50.900;4.672;2023-09-07T03:31:23;35.58;;;32.58;;
9801;SDS011;4940;50.900;4.672;2023-09-07T03:33:50;39.70;;;36.60;;
9801;SDS011;4940;50.900;4.672;2023-09-07T03:36:18;38.00;;;34.90;;
9801;SDS011;4940;50.900;4.672;2023-09-07T03:38:45;38.30;;;35.08;;
9801;SDS011;4940;50.900;4.672;2023-09-07T03:41:14;42.60;;;39.28;;
9801;SDS011;4940;50.900;4.672;2023-09-07T03:43:41;47.78;;;44.05;;
9801;SDS011;4940;50.900;4.672;2023-09-07T03:46:08;44.58;;;41.08;;
9801;SDS011;4940;50.900;4.672;2023-09-07T03:48:36;40.85;;;37.60;;
9801;SDS011;4940;50.900;4.672;2023-09-07T03:51:04;46.08;;;42.28;;
9801;SDS011;4940;50.900;4.672;2023-09-07T03:53:32;37.10;;;34.13;;
9801;SDS011;4940;50.900;4.672;2023-09-07T03:56:01;40.40;;;37.08;;
9801;SDS011;4940;50.900;4.672;2023-09-07T03:58:32;44.90;;;41.30;;
9801;SDS011;4940;50.900;4.672;2023-09-07T04:00:59;41.53;;;38.33;;
9801;SDS011;4940;50.900;4.672;2023-09-07T04:03:26;39.67;;;36.00;;
9801;SDS011;4940;50.900;4.672;2023-09-07T04:05:54;40.60;;;37.05;;
9801;SDS011;4940;50.900;4.672;2023-09-07T04:08:21;49.13;;;45.38;;
9801;SDS011;4940;50.900;4.672;2023-09-07T04:10:49;42.85;;;39.45;;
9801;SDS011;4940;50.900;4.672;2023-09-07T04:13:16;39.17;;;35.95;;
9801;SDS011;4940;50.900;4.672;2023-09-07T04:15:45;49.00;;;45.13;;
9801;SDS011;4940;50.900;4.672;2023-09-07T04:18:13;42.75;;;39.53;;
9801;SDS011;4940;50.900;4.672;2023-09-07T04:20:44;37.78;;;34.45;;
9801;SDS011;4940;50.900;4.672;2023-09-07T04:23:11;40.80;;;37.42;;
9801;SDS011;4940;50.900;4.672;2023-09-07T04:25:53;45.60;;;41.75;;
9801;SDS011;4940;50.900;4.672;2023-09-07T04:28:29;47.33;;;43.63;;
9801;SDS011;4940;50.900;4.672;2023-09-07T04:30:58;39.13;;;35.83;;
9801;SDS011;4940;50.900;4.672;2023-09-07T04:33:25;40.05;;;36.53;;
9801;SDS011;4940;50.900;4.672;2023-09-07T04:35:52;45.15;;;41.55;;
9801;SDS011;4940;50.900;4.672;2023-09-07T04:38:20;41.35;;;37.78;;
9801;SDS011;4940;50.900;4.672;2023-09-07T04:40:47;45.00;;;41.20;;
9801;SDS011;4940;50.900;4.672;2023-09-07T04:43:14;44.88;;;41.33;;
9801;SDS011;4940;50.900;4.672;2023-09-07T04:45:45;41.70;;;38.08;;
9801;SDS011;4940;50.900;4.672;2023-09-07T04:48:14;41.72;;;38.28;;
9801;SDS011;4940;50.900;4.672;2023-09-07T04:50:41;46.92;;;43.22;;
9801;SDS011;4940;50.900;4.672;2023-09-07T04:53:09;41.08;;;37.50;;
9801;SDS011;4940;50.900;4.672;2023-09-07T04:55:37;39.60;;;36.42;;
9801;SDS011;4940;50.900;4.672;2023-09-07T04:58:05;45.38;;;41.45;;
9801;SDS011;4940;50.900;4.672;2023-09-07T05:00:32;43.92;;;40.38;;
9801;SDS011;4940;50.900;4.672;2023-09-07T05:02:59;49.00;;;45.00;;
9801;SDS011;4940;50.900;4.672;2023-09-07T05:05:29;40.03;;;36.83;;
9801;SDS011;4940;50.900;4.672;2023-09-07T05:07:56;42.03;;;38.63;;
9801;SDS011;4940;50.900;4.672;2023-09-07T05:10:23;40.55;;;37.28;;
9801;SDS011;4940;50.900;4.672;2023-09-07T05:12:51;36.28;;;33.05;;
9801;SDS011;4940;50.900;4.672;2023-09-07T05:15:18;35.72;;;32.42;;
9801;SDS011;4940;50.900;4.672;2023-09-07T05:17:45;38.83;;;35.42;;
9801;SDS011;4940;50.900;4.672;2023-09-07T05:20:13;38.05;;;34.55;;
9801;SDS011;4940;50.900;4.672;2023-09-07T05:22:41;35.65;;;32.25;;
9801;SDS011;4940;50.900;4.672;2023-09-07T05:25:09;36.85;;;33.38;;
9801;SDS011;4940;50.900;4.672;2023-09-07T05:27:36;38.67;;;35.15;;
9801;SDS011;4940;50.900;4.672;2023-09-07T05:30:04;40.47;;;36.83;;
9801;SDS011;4940;50.900;4.672;2023-09-07T05:32:32;38.50;;;35.13;;
9801;SDS011;4940;50.900;4.672;2023-09-07T05:35:00;39.45;;;35.75;;
9801;SDS011;4940;50.900;4.672;2023-09-07T05:37:27;40.33;;;36.80;;
9801;SDS011;4940;50.900;4.672;2023-09-07T05:39:56;38.28;;;34.65;;
9801;SDS011;4940;50.900;4.672;2023-09-07T05:42:24;40.03;;;36.53;;
9801;SDS011;4940;50.900;4.672;2023-09-07T05:44:52;38.53;;;35.08;;
9801;SDS011;4940;50.900;4.672;2023-09-07T05:47:19;38.00;;;34.47;;
9801;SDS011;4940;50.900;4.672;2023-09-07T05:49:46;41.40;;;37.70;;
9801;SDS011;4940;50.900;4.672;2023-09-07T05:52:14;39.58;;;36.08;;
9801;SDS011;4940;50.900;4.672;2023-09-07T05:54:41;41.22;;;37.42;;
9801;SDS011;4940;50.900;4.672;2023-09-07T05:57:10;40.15;;;36.55;;
9801;SDS011;4940;50.900;4.672;2023-09-07T05:59:37;42.35;;;38.25;;
9801;SDS011;4940;50.900;4.672;2023-09-07T06:02:04;39.22;;;35.60;;
9801;SDS011;4940;50.900;4.672;2023-09-07T06:04:32;43.15;;;39.38;;
9801;SDS011;4940;50.900;4.672;2023-09-07T06:07:00;42.90;;;39.00;;
9801;SDS011;4940;50.900;4.672;2023-09-07T06:09:28;39.25;;;35.45;;
9801;SDS011;4940;50.900;4.672;2023-09-07T06:11:55;40.13;;;36.13;;
9801;SDS011;4940;50.900;4.672;2023-09-07T06:14:24;45.47;;;41.30;;
9801;SDS011;4940;50.900;4.672;2023-09-07T06:16:51;48.28;;;43.95;;
9801;SDS011;4940;50.900;4.672;2023-09-07T06:19:19;41.85;;;37.45;;
9801;SDS011;4940;50.900;4.672;2023-09-07T06:21:46;43.42;;;38.95;;
9801;SDS011;4940;50.900;4.672;2023-09-07T06:24:14;48.90;;;44.42;;
9801;SDS011;4940;50.900;4.672;2023-09-07T06:26:41;44.83;;;40.22;;
9801;SDS011;4940;50.900;4.672;2023-09-07T06:29:09;42.28;;;38.25;;
9801;SDS011;4940;50.900;4.672;2023-09-07T06:31:38;41.13;;;37.10;;
9801;SDS011;4940;50.900;4.672;2023-09-07T06:34:05;43.65;;;39.53;;
9801;SDS011;4940;50.900;4.672;2023-09-07T06:36:32;41.17;;;37.17;;
9801;SDS011;4940;50.900;4.672;2023-09-07T06:39:00;42.13;;;38.13;;
9801;SDS011;4940;50.900;4.672;2023-09-07T06:41:27;46.25;;;41.97;;
9801;SDS011;4940;50.900;4.672;2023-09-07T06:43:55;44.17;;;40.20;;
9801;SDS011;4940;50.900;4.672;2023-09-07T06:46:22;44.55;;;40.20;;
9801;SDS011;4940;50.900;4.672;2023-09-07T06:48:50;41.38;;;37.60;;
9801;SDS011;4940;50.900;4.672;2023-09-07T06:51:18;42.22;;;38.10;;
9801;SDS011;4940;50.900;4.672;2023-09-07T06:53:46;42.22;;;38.30;;
9801;SDS011;4940;50.900;4.672;2023-09-07T06:56:15;42.38;;;38.58;;
9801;SDS011;4940;50.900;4.672;2023-09-07T06:58:43;40.88;;;37.15;;
9801;SDS011;4940;50.900;4.672;2023-09-07T07:01:10;39.85;;;35.97;;
9801;SDS011;4940;50.900;4.672;2023-09-07T07:03:37;37.80;;;34.50;;
9801;SDS011;4940;50.900;4.672;2023-09-07T07:06:06;38.72;;;35.42;;
9801;SDS011;4940;50.900;4.672;2023-09-07T07:08:34;38.47;;;35.08;;
9801;SDS011;4940;50.900;4.672;2023-09-07T07:11:01;40.03;;;36.20;;
9801;SDS011;4940;50.900;4.672;2023-09-07T07:13:28;36.67;;;33.58;;
9801;SDS011;4940;50.900;4.672;2023-09-07T07:15:56;39.38;;;36.17;;
9801;SDS011;4940;50.900;4.672;2023-09-07T07:18:23;40.95;;;37.75;;
9801;SDS011;4940;50.900;4.672;2023-09-07T07:20:51;37.92;;;35.03;;
9801;SDS011;4940;50.900;4.672;2023-09-07T07:23:19;38.53;;;35.63;;
9801;SDS011;4940;50.900;4.672;2023-09-07T07:25:46;37.83;;;34.83;;
9801;SDS011;4940;50.900;4.672;2023-09-07T07:28:14;38.85;;;35.97;;
9801;SDS011;4940;50.900;4.672;2023-09-07T07:30:41;37.03;;;33.90;;
9801;SDS011;4940;50.900;4.672;2023-09-07T07:33:09;40.03;;;36.78;;
9801;SDS011;4940;50.900;4.672;2023-09-07T07:35:37;35.30;;;32.70;;
9801;SDS011;4940;50.900;4.672;2023-09-07T07:38:04;35.90;;;33.10;;
9801;SDS011;4940;50.900;4.672;2023-09-07T07:40:34;38.72;;;36.03;;
9801;SDS011;4940;50.900;4.672;2023-09-07T07:43:01;36.38;;;34.03;;
9801;SDS011;4940;50.900;4.672;2023-09-07T07:45:29;18.05;;;16.55;;
9801;SDS011;4940;50.900;4.672;2023-09-07T07:48:02;7.32;;;5.30;;
9801;SDS011;4940;50.900;4.672;2023-09-07T07:50:30;5.07;;;3.80;;
9801;SDS011;4940;50.900;4.672;2023-09-07T07:52:58;4.97;;;3.65;;
9801;SDS011;4940;50.900;4.672;2023-09-07T07:55:25;5.13;;;3.70;;
9801;SDS011;4940;50.900;4.672;2023-09-07T07:57:54;4.40;;;3.80;;
9801;SDS011;4940;50.900;4.672;2023-09-07T08:00:21;5.63;;;4.10;;
9801;SDS011;4940;50.900;4.672;2023-09-07T08:02:48;4.03;;;3.63;;
9801;SDS011;4940;50.900;4.672;2023-09-07T08:05:16;5.30;;;4.40;;
9801;SDS011;4940;50.900;4.672;2023-09-07T08:07:43;7.38;;;4.18;;
9801;SDS011;4940;50.900;4.672;2023-09-07T08:10:11;4.70;;;4.18;;
9801;SDS011;4940;50.900;4.672;2023-09-07T08:12:38;5.35;;;4.03;;
9801;SDS011;4940;50.900;4.672;2023-09-07T08:15:07;4.80;;;4.30;;
9801;SDS011;4940;50.900;4.672;2023-09-07T08:17:34;4.82;;;4.07;;
9801;SDS011;4940;50.900;4.672;2023-09-07T08:20:02;4.28;;;3.95;;
9801;SDS011;4940;50.900;4.672;2023-09-07T08:22:33;4.35;;;3.97;;
9801;SDS011;4940;50.900;4.672;2023-09-07T08:25:01;7.95;;;4.30;;
9801;SDS011;4940;50.900;4.672;2023-09-07T08:27:29;5.75;;;4.30;;
9801;SDS011;4940;50.900;4.672;2023-09-07T08:29:57;4.25;;;3.85;;
9801;SDS011;4940;50.900;4.672;2023-09-07T08:32:25;5.38;;;4.25;;
9801;SDS011;4940;50.900;4.672;2023-09-07T08:34:53;4.47;;;4.07;;
9801;SDS011;4940;50.900;4.672;2023-09-07T08:37:25;4.53;;;3.83;;
9801;SDS011;4940;50.900;4.672;2023-09-07T08:39:53;5.47;;;3.72;;
9801;SDS011;4940;50.900;4.672;2023-09-07T08:42:21;4.18;;;3.83;;
9801;SDS011;4940;50.900;4.672;2023-09-07T08:44:49;4.75;;;4.25;;
9801;SDS011;4940;50.900;4.672;2023-09-07T08:47:19;4.30;;;3.90;;
9801;SDS011;4940;50.900;4.672;2023-09-07T08:49:49;5.75;;;4.10;;
9801;SDS011;4940;50.900;4.672;2023-09-07T08:52:17;6.18;;;3.80;;
9801;SDS011;4940;50.900;4.672;2023-09-07T08:54:45;5.13;;;3.85;;
9801;SDS011;4940;50.900;4.672;2023-09-07T08:57:12;3.80;;;3.50;;
9801;SDS011;4940;50.900;4.672;2023-09-07T08:59:41;5.10;;;4.10;;
9801;SDS011;4940;50.900;4.672;2023-09-07T09:02:09;7.60;;;3.92;;
9801;SDS011;4940;50.900;4.672;2023-09-07T09:04:37;6.10;;;4.75;;
9801;SDS011;4940;50.900;4.672;2023-09-07T09:07:06;5.57;;;4.45;;
9801;SDS011;4940;50.900;4.672;2023-09-07T09:09:34;4.88;;;4.47;;
9801;SDS011;4940;50.900;4.672;2023-09-07T09:12:07;4.68;;;4.28;;
9801;SDS011;4940;50.900;4.672;2023-09-07T09:14:34;4.43;;;4.07;;
9801;SDS011;4940;50.900;4.672;2023-09-07T09:17:02;4.80;;;4.40;;
9801;SDS011;4940;50.900;4.672;2023-09-07T09:19:30;4.28;;;3.88;;
9801;SDS011;4940;50.900;4.672;2023-09-07T09:21:58;4.68;;;4.30;;
9801;SDS011;4940;50.900;4.672;2023-09-07T09:24:26;4.57;;;4.18;;
9801;SDS011;4940;50.900;4.672;2023-09-07T09:26:53;4.82;;;4.30;;
9801;SDS011;4940;50.900;4.672;2023-09-07T09:29:22;5.50;;;4.30;;
9801;SDS011;4940;50.900;4.672;2023-09-07T09:31:50;4.40;;;4.10;;
9801;SDS011;4940;50.900;4.672;2023-09-07T09:34:18;4.18;;;3.78;;
9801;SDS011;4940;50.900;4.672;2023-09-07T09:36:45;4.35;;;4.00;;
9801;SDS011;4940;50.900;4.672;2023-09-07T09:39:21;5.95;;;3.85;;
9801;SDS011;4940;50.900;4.672;2023-09-07T09:41:51;4.65;;;3.83;;
9801;SDS011;4940;50.900;4.672;2023-09-07T09:44:21;4.07;;;3.78;;
9801;SDS011;4940;50.900;4.672;2023-09-07T09:46:51;4.85;;;3.83;;
9801;SDS011;4940;50.900;4.672;2023-09-07T09:49:20;4.53;;;4.00;;
9801;SDS011;4940;50.900;4.672;2023-09-07T09:51:48;3.65;;;3.42;;
9801;SDS011;4940;50.900;4.672;2023-09-07T09:54:16;4.22;;;3.90;;
9801;SDS011;4940;50.900;4.672;2023-09-07T09:56:44;4.03;;;3.72;;
9801;SDS011;4940;50.900;4.672;2023-09-07T09:59:14;6.75;;;4.30;;
9801;SDS011;4940;50.900;4.672;2023-09-07T10:01:43;4.82;;;4.22;;
9801;SDS011;4940;50.900;4.672;2023-09-07T10:04:12;6.22;;;3.88;;
9801;SDS011;4940;50.900;4.672;2023-09-07T10:06:49;4.05;;;3.75;;
9801;SDS011;4940;50.900;4.672;2023-09-07T10:09:20;4.18;;;3.88;;
9801;SDS011;4940;50.900;4.672;2023-09-07T10:11:51;5.10;;;3.95;;
9801;SDS011;4940;50.900;4.672;2023-09-07T10:14:20;4.38;;;4.07;;
9801;SDS011;4940;50.900;4.672;2023-09-07T10:16:48;5.05;;;4.65;;
9801;SDS011;4940;50.900;4.672;2023-09-07T10:19:18;4.88;;;4.47;;
9801;SDS011;4940;50.900;4.672;2023-09-07T10:21:46;4.05;;;3.85;;
9801;SDS011;4940;50.900;4.672;2023-09-07T10:24:23;4.55;;;4.15;;
9801;SDS011;4940;50.900;4.672;2023-09-07T10:26:59;4.65;;;4.25;;
9801;SDS011;4940;50.900;4.672;2023-09-07T10:29:28;4.65;;;4.35;;
9801;SDS011;4940;50.900;4.672;2023-09-07T10:32:06;4.25;;;3.90;;
9801;SDS011;4940;50.900;4.672;2023-09-07T10:34:36;4.25;;;3.95;;
9801;SDS011;4940;50.900;4.672;2023-09-07T10:37:04;4.65;;;4.13;;
9801;SDS011;4940;50.900;4.672;2023-09-07T10:39:32;4.95;;;4.55;;
9801;SDS011;4940;50.900;4.672;2023-09-07T10:42:00;5.07;;;4.68;;
9801;SDS011;4940;50.900;4.672;2023-09-07T10:44:29;4.43;;;4.13;;
9801;SDS011;4940;50.900;4.672;2023-09-07T10:46:56;4.50;;;4.10;;
9801;SDS011;4940;50.900;4.672;2023-09-07T10:49:24;7.78;;;3.78;;
9801;SDS011;4940;50.900;4.672;2023-09-07T10:51:51;4.75;;;4.35;;
9801;SDS011;4940;50.900;4.672;2023-09-07T10:54:21;4.85;;;4.45;;
9801;SDS011;4940;50.900;4.672;2023-09-07T10:56:50;10.68;;;4.28;;
9801;SDS011;4940;50.900;4.672;2023-09-07T10:59:17;5.53;;;4.70;;
9801;SDS011;4940;50.900;4.672;2023-09-07T11:01:46;4.05;;;3.55;;
9801;SDS011;4940;50.900;4.672;2023-09-07T11:04:14;4.28;;;3.97;;
9801;SDS011;4940;50.900;4.672;2023-09-07T11:06:43;4.60;;;4.30;;
9801;SDS011;4940;50.900;4.672;2023-09-07T11:09:11;4.68;;;4.28;;
9801;SDS011;4940;50.900;4.672;2023-09-07T11:11:39;3.65;;;3.45;;
9801;SDS011;4940;50.900;4.672;2023-09-07T11:14:07;4.50;;;4.10;;
9801;SDS011;4940;50.900;4.672;2023-09-07T11:16:34;4.13;;;3.83;;
9801;SDS011;4940;50.900;4.672;2023-09-07T11:19:06;4.88;;;4.45;;
9801;SDS011;4940;50.900;4.672;2023-09-07T11:21:34;4.72;;;4.18;;
9801;SDS011;4940;50.900;4.672;2023-09-07T11:24:01;4.30;;;4.00;;
9801;SDS011;4940;50.900;4.672;2023-09-07T11:26:40;4.82;;;4.43;;
9801;SDS011;4940;50.900;4.672;2023-09-07T11:29:08;4.45;;;4.15;;
9801;SDS011;4940;50.900;4.672;2023-09-07T11:31:35;4.53;;;4.05;;
9801;SDS011;4940;50.900;4.672;2023-09-07T11:34:03;6.45;;;4.93;;
9801;SDS011;4940;50.900;4.672;2023-09-07T11:36:36;4.93;;;4.50;;
9801;SDS011;4940;50.900;4.672;2023-09-07T11:39:03;4.72;;;4.32;;
9801;SDS011;4940;50.900;4.672;2023-09-07T11:41:37;5.07;;;4.65;;
9801;SDS011;4940;50.900;4.672;2023-09-07T11:44:04;4.28;;;3.88;;
9801;SDS011;4940;50.900;4.672;2023-09-07T11:46:32;4.97;;;4.57;;
9801;SDS011;4940;50.900;4.672;2023-09-07T11:48:59;4.60;;;4.30;;
9801;SDS011;4940;50.900;4.672;2023-09-07T11:51:27;4.57;;;4.20;;
9801;SDS011;4940;50.900;4.672;2023-09-07T11:53:56;4.20;;;3.80;;
9801;SDS011;4940;50.900;4.672;2023-09-07T11:56:24;4.28;;;3.92;;
9801;SDS011;4940;50.900;4.672;2023-09-07T11:58:52;5.03;;;4.53;;
9801;SDS011;4940;50.900;4.672;2023-09-07T12:01:20;4.47;;;4.07;;
9801;SDS011;4940;50.900;4.672;2023-09-07T12:03:47;3.92;;;3.63;;
9801;SDS011;4940;50.900;4.672;2023-09-07T12:06:15;4.07;;;3.78;;
9801;SDS011;4940;50.900;4.672;2023-09-07T12:08:42;9.05;;;4.40;;
9801;SDS011;4940;50.900;4.672;2023-09-07T12:11:26;4.68;;;4.28;;
9801;SDS011;4940;50.900;4.672;2023-09-07T12:13:54;4.93;;;3.80;;
9801;SDS011;4940;50.900;4.672;2023-09-07T12:16:21;4.10;;;3.80;;
9801;SDS011;4940;50.900;4.672;2023-09-07T12:18:48;4.82;;;4.30;;
9801;SDS011;4940;50.900;4.672;2023-09-07T12:21:16;9.43;;;4.63;;
9801;SDS011;4940;50.900;4.672;2023-09-07T12:23:42;5.63;;;4.15;;
9801;SDS011;4940;50.900;4.672;2023-09-07T12:26:11;5.38;;;3.97;;
9801;SDS011;4940;50.900;4.672;2023-09-07T12:28:39;6.97;;;3.70;;
9801;SDS011;4940;50.900;4.672;2023-09-07T12:31:07;3.97;;;3.58;;
9801;SDS011;4940;50.900;4.672;2023-09-07T12:33:35;4.95;;;4.05;;
9801;SDS011;4940;50.900;4.672;2023-09-07T12:36:03;4.95;;;3.78;;
9801;SDS011;4940;50.900;4.672;2023-09-07T12:38:34;5.93;;;3.92;;
9801;SDS011;4940;50.900;4.672;2023-09-07T12:41:01;6.40;;;4.10;;
9801;SDS011;4940;50.900;4.672;2023-09-07T12:43:30;4.97;;;4.47;;
9801;SDS011;4940;50.900;4.672;2023-09-07T12:45:58;4.47;;;4.07;;
9801;SDS011;4940;50.900;4.672;2023-09-07T12:48:25;5.53;;;4.07;;
9801;SDS011;4940;50.900;4.672;2023-09-07T12:50:53;5.60;;;4.43;;
9801;SDS011;4940;50.900;4.672;2023-09-07T12:53:21;4.38;;;3.55;;
9801;SDS011;4940;50.900;4.672;2023-09-07T12:55:51;4.38;;;3.40;;
9801;SDS011;4940;50.900;4.672;2023-09-07T12:58:18;4.20;;;3.90;;
9801;SDS011;4940;50.900;4.672;2023-09-07T13:00:47;6.35;;;4.07;;
9801;SDS011;4940;50.900;4.672;2023-09-07T13:03:16;4.60;;;4.20;;
9801;SDS011;4940;50.900;4.672;2023-09-07T13:05:44;7.00;;;4.20;;
9801;SDS011;4940;50.900;4.672;2023-09-07T13:08:11;3.75;;;3.45;;
9801;SDS011;4940;50.900;4.672;2023-09-07T13:10:38;5.65;;;4.25;;
9801;SDS011;4940;50.900;4.672;2023-09-07T13:13:06;4.25;;;3.80;;
9801;SDS011;4940;50.900;4.672;2023-09-07T13:15:33;5.53;;;3.60;;
9801;SDS011;4940;50.900;4.672;2023-09-07T13:18:02;5.03;;;3.83;;
9801;SDS011;4940;50.900;4.672;2023-09-07T13:20:30;7.38;;;3.58;;
9801;SDS011;4940;50.900;4.672;2023-09-07T13:22:57;4.72;;;3.47;;
9801;SDS011;4940;50.900;4.672;2023-09-07T13:25:25;5.05;;;3.30;;
9801;SDS011;4940;50.900;4.672;2023-09-07T13:27:53;4.55;;;4.15;;
9801;SDS011;4940;50.900;4.672;2023-09-07T13:30:21;4.40;;;3.78;;
9801;SDS011;4940;50.900;4.672;2023-09-07T13:32:48;5.03;;;3.60;;
9801;SDS011;4940;50.900;4.672;2023-09-07T13:35:17;4.57;;;3.58;;
9801;SDS011;4940;50.900;4.672;2023-09-07T13:37:44;3.80;;;3.50;;
9801;SDS011;4940;50.900;4.672;2023-09-07T13:40:12;5.22;;;3.70;;
9801;SDS011;4940;50.900;4.672;2023-09-07T13:42:40;4.45;;;3.75;;
9801;SDS011;4940;50.900;4.672;2023-09-07T13:45:08;6.10;;;3.65;;
9801;SDS011;4940;50.900;4.672;2023-09-07T13:47:36;6.35;;;4.03;;
9801;SDS011;4940;50.900;4.672;2023-09-07T13:50:04;4.22;;;3.83;;
9801;SDS011;4940;50.900;4.672;2023-09-07T13:52:36;4.25;;;3.67;;
9801;SDS011;4940;50.900;4.672;2023-09-07T13:55:05;5.53;;;3.63;;
9801;SDS011;4940;50.900;4.672;2023-09-07T13:57:33;5.65;;;3.60;;
9801;SDS011;4940;50.900;4.672;2023-09-07T14:00:00;4.00;;;3.70;;
9801;SDS011;4940;50.900;4.672;2023-09-07T14:02:31;3.90;;;3.60;;
9801;SDS011;4940;50.900;4.672;2023-09-07T14:05:08;4.22;;;3.75;;
9801;SDS011;4940;50.900;4.672;2023-09-07T14:07:45;5.07;;;3.70;;
9801;SDS011;4940;50.900;4.672;2023-09-07T14:10:16;3.95;;;3.55;;
9801;SDS011;4940;50.900;4.672;2023-09-07T14:12:56;4.20;;;3.80;;
9801;SDS011;4940;50.900;4.672;2023-09-07T14:15:30;6.07;;;3.63;;
9801;SDS011;4940;50.900;4.672;2023-09-07T14:18:12;5.97;;;4.00;;
9801;SDS011;4940;50.900;4.672;2023-09-07T14:20:40;4.22;;;3.60;;
9801;SDS011;4940;50.900;4.672;2023-09-07T14:23:12;7.85;;;3.90;;
9801;SDS011;4940;50.900;4.672;2023-09-07T14:25:39;4.15;;;3.75;;
9801;SDS011;4940;50.900;4.672;2023-09-07T14:28:10;6.97;;;3.45;;
9801;SDS011;4940;50.900;4.672;2023-09-07T14:30:38;5.93;;;3.63;;
9801;SDS011;4940;50.900;4.672;2023-09-07T14:33:05;5.00;;;3.72;;
9801;SDS011;4940;50.900;4.672;2023-09-07T14:35:33;4.40;;;3.28;;
9801;SDS011;4940;50.900;4.672;2023-09-07T14:38:01;5.18;;;4.28;;
9801;SDS011;4940;50.900;4.672;2023-09-07T14:40:30;7.07;;;3.92;;
9801;SDS011;4940;50.900;4.672;2023-09-07T14:42:57;9.45;;;4.20;;
9801;SDS011;4940;50.900;4.672;2023-09-07T14:45:24;7.13;;;4.10;;
9801;SDS011;4940;50.900;4.672;2023-09-07T14:47:52;5.95;;;4.10;;
9801;SDS011;4940;50.900;4.672;2023-09-07T14:50:20;6.25;;;3.72;;
9801;SDS011;4940;50.900;4.672;2023-09-07T14:52:47;4.18;;;3.78;;
9801;SDS011;4940;50.900;4.672;2023-09-07T14:55:15;4.13;;;3.75;;
9801;SDS011;4940;50.900;4.672;2023-09-07T14:57:44;4.22;;;3.65;;
9801;SDS011;4940;50.900;4.672;2023-09-07T15:00:12;4.50;;;4.10;;
9801;SDS011;4940;50.900;4.672;2023-09-07T15:02:39;6.57;;;3.70;;
9801;SDS011;4940;50.900;4.672;2023-09-07T15:05:07;4.43;;;4.07;;
9801;SDS011;4940;50.900;4.672;2023-09-07T15:07:38;5.80;;;3.42;;